Time;durP1;ratioP1;P1;durP2;ratioP2;P2;SDS_P1;SDS_P2;PMS_P1;PMS_P2;Temp;Humidity;BMP_temperature;BMP_pressure;BME280_temperature;BME280_humidity;BME280_pressure;Samples;Min_cycle;Max_cycle;Signal;HPM_P1;HPM_P2
2023/01/16 00:00:59;;;;;;;0.63;0.30;;;2.70;99.90;;;;;;5093297;28;20032;-62
2023/01/16 00:03:25;;;;;;;2.97;0.45;;;2.60;99.90;;;;;;5086922;28;20401;-61
2023/01/16 00:05:51;;;;;;;2.30;0.30;;;2.60;99.90;;;;;;5087424;28;20028;-61
2023/01/16 00:08:17;;;;;;;12.82;0.63;;;2.60;99.90;;;;;;5069702;28;20433;-63
2023/01/16 00:10:43;;;;;;;3.63;0.50;;;2.70;99.90;;;;;;5087138;28;20039;-62
2023/01/16 00:13:11;;;;;;;2.30;0.43;;;2.60;99.90;;;;;;5064792;28;20059;-61
2023/01/16 00:15:36;;;;;;;5.60;0.73;;;2.70;99.90;;;;;;5089173;28;20239;-62
2023/01/16 00:18:02;;;;;;;2.80;0.60;;;2.70;99.90;;;;;;5079190;28;20566;-62
2023/01/16 00:20:28;;;;;;;2.40;0.40;;;2.70;99.90;;;;;;5084331;28;20043;-61
2023/01/16 00:22:53;;;;;;;2.65;0.60;;;2.80;99.90;;;;;;5082177;28;20028;-62
2023/01/16 00:25:19;;;;;;;6.97;0.50;;;2.90;99.90;;;;;;5083150;28;20092;-63
2023/01/16 00:27:44;;;;;;;1.95;0.52;;;2.90;99.90;;;;;;5086860;28;20044;-60
2023/01/16 00:30:10;;;;;;;3.30;0.68;;;3.10;99.90;;;;;;5085262;28;20047;-62
2023/01/16 00:32:36;;;;;;;1.05;0.40;;;3.00;99.90;;;;;;5086367;28;20631;-62
2023/01/16 00:35:03;;;;;;;2.38;0.50;;;2.90;99.90;;;;;;5082074;28;20111;-62
2023/01/16 00:37:28;;;;;;;4.22;0.60;;;3.00;99.90;;;;;;5085614;28;20040;-61
2023/01/16 00:39:54;;;;;;;1.55;0.50;;;3.00;99.90;;;;;;5087972;28;20047;-61
2023/01/16 00:42:19;;;;;;;5.55;0.50;;;3.00;99.90;;;;;;5079622;28;20052;-62
2023/01/16 00:44:45;;;;;;;4.45;0.88;;;3.10;99.90;;;;;;5086413;28;20487;-61
2023/01/16 00:47:11;;;;;;;6.55;0.60;;;3.10;99.90;;;;;;5086188;28;20028;-60
2023/01/16 00:49:36;;;;;;;4.40;0.82;;;3.20;99.90;;;;;;5094063;28;20047;-61
2023/01/16 00:52:02;;;;;;;1.85;0.47;;;3.10;99.90;;;;;;5083379;28;20085;-62
2023/01/16 00:54:28;;;;;;;4.07;0.50;;;3.10;99.90;;;;;;5083783;28;20051;-61
2023/01/16 00:56:54;;;;;;;3.50;0.70;;;3.20;99.90;;;;;;5086747;28;20024;-61
2023/01/16 00:59:19;;;;;;;5.15;0.50;;;3.20;99.90;;;;;;5088319;28;20036;-63
2023/01/16 01:01:45;;;;;;;5.55;0.47;;;3.30;99.90;;;;;;5099244;28;21056;-61
2023/01/16 01:04:12;;;;;;;2.85;0.40;;;3.30;99.90;;;;;;5085112;28;20511;-62
2023/01/16 01:06:38;;;;;;;3.58;0.50;;;3.20;99.90;;;;;;5070840;28;20161;-63
2023/01/16 01:09:03;;;;;;;3.58;0.50;;;3.20;99.90;;;;;;5091838;28;20460;-60
2023/01/16 01:11:29;;;;;;;2.08;0.60;;;3.30;99.90;;;;;;5089074;28;20381;-61
2023/01/16 01:13:55;;;;;;;3.15;0.73;;;3.30;99.90;;;;;;5090217;28;20097;-60
2023/01/16 01:16:20;;;;;;;3.50;0.50;;;3.10;99.90;;;;;;5089065;28;20110;-61
2023/01/16 01:18:46;;;;;;;5.90;0.55;;;3.10;99.90;;;;;;5090151;28;20032;-62
2023/01/16 01:21:11;;;;;;;1.48;0.40;;;3.10;99.90;;;;;;5092456;28;20075;-60
2023/01/16 01:23:37;;;;;;;3.42;0.50;;;3.20;99.90;;;;;;5090836;28;20039;-62
2023/01/16 01:26:14;;;;;;;4.18;0.80;;;3.20;99.90;;;;;;5082526;28;20603;-62
2023/01/16 01:28:40;;;;;;;2.10;0.43;;;3.20;99.90;;;;;;5090356;28;20048;-62
2023/01/16 01:31:07;;;;;;;1.90;0.50;;;3.20;99.90;;;;;;5064528;28;20043;-61
2023/01/16 01:33:33;;;;;;;4.38;0.65;;;3.20;99.90;;;;;;5084592;28;20052;-62
2023/01/16 01:36:00;;;;;;;1.60;0.30;;;3.30;99.90;;;;;;5088837;28;20449;-61
2023/01/16 01:38:26;;;;;;;6.07;0.75;;;3.30;99.90;;;;;;5084689;28;20059;-59
2023/01/16 01:40:52;;;;;;;3.05;0.55;;;3.30;99.90;;;;;;5084408;28;20644;-61
2023/01/16 01:43:19;;;;;;;2.40;0.50;;;3.30;99.90;;;;;;5090859;28;20372;-61
2023/01/16 01:45:54;;;;;;;2.55;0.40;;;3.20;99.90;;;;;;5087045;28;20024;-62
2023/01/16 01:48:35;;;;;;;3.08;0.63;;;3.30;99.90;;;;;;5091167;28;20457;-63
2023/01/16 01:51:17;;;;;;;4.28;0.50;;;3.20;99.90;;;;;;5089895;28;20119;-62
2023/01/16 01:53:59;;;;;;;4.13;0.55;;;3.20;99.90;;;;;;5083152;28;20091;-62
2023/01/16 01:56:38;;;;;;;1.52;0.50;;;3.30;99.90;;;;;;5090251;28;20054;-62
2023/01/16 01:59:10;;;;;;;2.92;0.45;;;3.30;99.90;;;;;;5089907;28;20032;-61
2023/01/16 02:01:37;;;;;;;7.10;0.55;;;3.10;99.90;;;;;;5089555;28;20035;-62
2023/01/16 02:04:08;;;;;;;6.95;0.50;;;3.00;99.90;;;;;;5090830;28;20032;-61
2023/01/16 02:06:42;;;;;;;1.73;0.40;;;3.00;99.90;;;;;;5080405;28;20039;-62
2023/01/16 02:09:08;;;;;;;5.88;0.50;;;2.90;99.90;;;;;;5090471;28;20032;-63
2023/01/16 02:12:00;;;;;;;5.30;0.40;;;2.90;99.90;;;;;;5080260;28;20043;-62
2023/01/16 02:14:28;;;;;;;2.17;0.60;;;2.90;99.90;;;;;;5077821;28;20050;-62
2023/01/16 02:20:24;;;;;;;3.13;0.47;;;2.90;99.90;;;;;;5086995;28;20050;-61
2023/01/16 02:23:13;;;;;;;1.73;0.55;;;2.80;99.90;;;;;;5088763;28;20539;-62
2023/01/16 02:26:03;;;;;;;3.58;0.60;;;2.80;99.90;;;;;;5089321;28;20042;-62
2023/01/16 02:29:07;;;;;;;8.93;0.70;;;2.90;99.90;;;;;;5088733;28;20185;-61
2023/01/16 02:31:41;;;;;;;3.28;0.85;;;2.80;99.90;;;;;;5064351;28;20036;-61
2023/01/16 02:34:13;;;;;;;2.65;0.40;;;2.80;99.90;;;;;;5089215;28;20028;-61
2023/01/16 02:37:31;;;;;;;3.28;0.60;;;2.80;99.90;;;;;;5094033;28;20542;-62
2023/01/16 02:40:20;;;;;;;4.43;0.50;;;2.80;99.90;;;;;;5038063;28;20052;-61
2023/01/16 02:42:52;;;;;;;3.28;0.52;;;2.80;99.90;;;;;;5087537;28;20691;-61
2023/01/16 02:45:28;;;;;;;2.70;0.70;;;2.80;99.90;;;;;;5089430;28;20044;-61
2023/01/16 02:48:18;;;;;;;6.43;0.50;;;2.80;99.90;;;;;;5080677;28;20392;-61
2023/01/16 02:51:02;;;;;;;3.15;0.40;;;2.70;99.90;;;;;;5084098;28;20024;-62
2023/01/16 02:53:41;;;;;;;1.75;0.57;;;2.60;99.90;;;;;;5084843;28;20039;-62
2023/01/16 02:56:11;;;;;;;2.03;0.45;;;2.70;99.90;;;;;;5087378;28;20042;-62
2023/01/16 02:58:44;;;;;;;3.75;0.70;;;2.80;99.90;;;;;;5087129;28;20036;-62
2023/01/16 03:01:11;;;;;;;2.88;0.50;;;2.70;99.90;;;;;;5085054;28;20036;-61
2023/01/16 03:03:41;;;;;;;2.35;0.40;;;2.70;99.90;;;;;;5087494;28;20039;-62
2023/01/16 03:06:19;;;;;;;4.15;0.63;;;2.70;99.90;;;;;;5086283;28;20060;-62
2023/01/16 03:08:58;;;;;;;3.13;0.50;;;2.70;99.90;;;;;;5087808;28;20016;-62
2023/01/16 03:11:27;;;;;;;3.50;0.43;;;2.60;99.90;;;;;;5064511;28;20025;-63
2023/01/16 03:14:24;;;;;;;3.75;0.70;;;2.50;99.90;;;;;;5085331;28;20048;-62
2023/01/16 03:16:55;;;;;;;1.77;0.40;;;2.50;99.90;;;;;;5072780;28;20074;-62
2023/01/16 03:19:41;;;;;;;4.43;0.50;;;2.50;99.90;;;;;;5086106;28;20035;-61
2023/01/16 03:22:36;;;;;;;3.30;0.60;;;2.50;99.90;;;;;;5080139;28;20393;-61
2023/01/16 03:25:14;;;;;;;4.00;0.52;;;2.40;99.90;;;;;;5079227;28;20123;-62
2023/01/16 03:27:59;;;;;;;3.25;0.47;;;2.40;99.90;;;;;;5082606;28;20097;-61
2023/01/16 03:31:00;;;;;;;1.95;0.40;;;2.40;99.90;;;;;;5078180;28;20061;-62
2023/01/16 03:33:25;;;;;;;;;;;2.40;99.90;;;;;;5058296;28;20040;-63
2023/01/16 03:36:07;;;;;;;2.17;0.40;;;2.40;99.90;;;;;;5079537;28;19916;-63
2023/01/16 03:38:36;;;;;;;1.52;0.28;;;2.40;99.90;;;;;;5077043;28;20461;-62
2023/01/16 03:41:03;;;;;;;2.78;0.55;;;2.30;99.90;;;;;;5085175;28;20040;-63
2023/01/16 03:43:37;;;;;;;1.73;0.47;;;2.10;99.90;;;;;;5076858;28;20021;-61
2023/01/16 03:46:32;;;;;;;2.13;0.55;;;2.00;99.90;;;;;;5076654;28;20481;-63
2023/01/16 03:49:03;;;;;;;6.88;0.80;;;1.90;99.90;;;;;;5083857;28;20035;-63
2023/01/16 03:51:34;;;;;;;1.40;0.40;;;1.90;99.90;;;;;;5085922;28;20141;-63
2023/01/16 03:54:06;;;;;;;4.05;0.65;;;1.90;99.90;;;;;;5087272;28;20056;-64
2023/01/16 03:56:57;;;;;;;3.33;0.47;;;1.90;99.90;;;;;;5078295;28;20448;-64
2023/01/16 03:59:23;;;;;;;1.20;0.40;;;1.80;99.90;;;;;;5067942;28;20478;-63
2023/01/16 04:02:04;;;;;;;6.30;0.93;;;1.80;99.90;;;;;;5089865;28;20141;-63
2023/01/16 04:04:34;;;;;;;1.52;0.40;;;1.80;99.90;;;;;;5072246;28;20056;-63
2023/01/16 04:06:59;;;;;;;3.75;0.55;;;1.70;99.90;;;;;;5088617;28;20410;-63
2023/01/16 04:09:46;;;;;;;3.03;0.60;;;1.70;99.90;;;;;;5086073;28;20088;-62
2023/01/16 04:12:17;;;;;;;2.35;0.60;;;1.60;99.90;;;;;;5071359;28;20391;-63
2023/01/16 04:14:45;;;;;;;1.70;0.40;;;1.60;99.90;;;;;;5086242;28;20108;-63
2023/01/16 04:17:11;;;;;;;4.25;0.40;;;1.50;99.90;;;;;;5087949;28;20032;-63
2023/01/16 04:19:37;;;;;;;4.38;0.68;;;1.40;99.90;;;;;;5079621;28;20077;-63
2023/01/16 04:22:07;;;;;;;6.40;0.65;;;1.30;99.90;;;;;;5088286;28;20028;-63
2023/01/16 04:24:35;;;;;;;1.15;0.50;;;1.20;99.90;;;;;;5085574;28;20062;-64
2023/01/16 04:27:01;;;;;;;4.38;0.80;;;1.20;99.90;;;;;;5087717;28;20056;-63
2023/01/16 04:29:26;;;;;;;3.65;0.65;;;1.20;99.90;;;;;;5087299;28;20032;-63
2023/01/16 04:31:52;;;;;;;1.88;0.75;;;1.10;99.90;;;;;;5083789;28;20159;-63
2023/01/16 04:34:18;;;;;;;5.57;0.90;;;1.10;99.90;;;;;;5088031;28;20051;-63
2023/01/16 04:36:43;;;;;;;3.00;0.80;;;1.20;99.90;;;;;;5085383;28;20031;-63
2023/01/16 04:39:09;;;;;;;3.58;0.85;;;1.20;99.90;;;;;;5087399;28;20389;-63
2023/01/16 04:41:37;;;;;;;3.40;0.82;;;1.30;99.90;;;;;;5076987;28;20078;-64
2023/01/16 04:44:05;;;;;;;3.70;1.15;;;1.30;99.90;;;;;;5086035;28;20073;-63
2023/01/16 04:46:31;;;;;;;2.20;0.80;;;1.20;99.90;;;;;;5089063;28;20035;-63
2023/01/16 04:48:56;;;;;;;4.22;0.98;;;1.30;99.90;;;;;;5086890;28;20036;-63
2023/01/16 04:51:22;;;;;;;4.22;1.40;;;1.20;99.90;;;;;;5088179;28;20789;-63
2023/01/16 04:53:48;;;;;;;6.32;1.10;;;1.10;99.90;;;;;;5085965;28;20092;-63
2023/01/16 04:56:14;;;;;;;3.40;1.30;;;1.10;99.90;;;;;;5087930;28;20059;-63
2023/01/16 04:58:39;;;;;;;3.22;0.82;;;1.10;99.90;;;;;;5085871;28;20047;-62
2023/01/16 05:01:05;;;;;;;2.97;0.82;;;1.00;99.90;;;;;;5085743;28;20115;-63
2023/01/16 05:03:30;;;;;;;3.60;0.77;;;1.10;99.90;;;;;;5089899;28;20035;-63
2023/01/16 05:05:56;;;;;;;4.78;0.60;;;1.00;99.90;;;;;;5083362;28;20462;-63
2023/01/16 05:08:25;;;;;;;2.63;0.65;;;1.10;99.90;;;;;;5087227;28;20089;-63
2023/01/16 05:10:51;;;;;;;2.42;0.80;;;1.10;99.90;;;;;;5078772;28;20058;-63
2023/01/16 05:13:17;;;;;;;3.10;0.88;;;1.10;99.90;;;;;;5078170;28;20032;-63
2023/01/16 05:15:44;;;;;;;3.42;0.73;;;1.10;99.90;;;;;;5084277;28;20081;-62
2023/01/16 05:18:11;;;;;;;2.88;0.75;;;1.10;99.90;;;;;;5086030;28;20521;-63
2023/01/16 05:20:37;;;;;;;3.75;1.00;;;1.10;99.90;;;;;;5086582;28;20469;-62
2023/01/16 05:23:03;;;;;;;3.45;0.80;;;1.10;99.90;;;;;;5090561;28;20115;-64
2023/01/16 05:25:29;;;;;;;3.03;0.68;;;1.00;99.90;;;;;;5086775;28;20065;-64
2023/01/16 05:27:55;;;;;;;2.80;0.80;;;1.00;99.90;;;;;;5085595;28;20040;-62
2023/01/16 05:30:21;;;;;;;2.15;0.80;;;1.00;99.90;;;;;;5088857;28;20607;-64
2023/01/16 05:32:46;;;;;;;6.32;1.00;;;1.00;99.90;;;;;;5088445;28;20036;-65
2023/01/16 05:35:13;;;;;;;5.65;1.00;;;1.00;99.90;;;;;;5086537;28;20608;-62
2023/01/16 05:37:39;;;;;;;5.07;0.90;;;1.00;99.90;;;;;;5089722;28;20020;-61
2023/01/16 05:40:05;;;;;;;5.97;0.85;;;0.90;99.90;;;;;;5068087;28;20036;-64
2023/01/16 05:42:30;;;;;;;2.78;1.00;;;0.90;99.90;;;;;;5086381;28;20055;-63
2023/01/16 05:44:56;;;;;;;3.17;1.00;;;1.00;99.90;;;;;;5085204;28;20998;-62
2023/01/16 05:47:22;;;;;;;7.50;1.00;;;1.00;99.90;;;;;;5087981;28;20101;-62
2023/01/16 05:49:47;;;;;;;6.95;1.02;;;1.00;99.90;;;;;;5085935;28;20034;-63
2023/01/16 05:52:13;;;;;;;5.53;0.90;;;1.00;99.90;;;;;;5090055;28;20082;-62
2023/01/16 05:54:39;;;;;;;3.67;1.13;;;0.90;99.90;;;;;;5090051;28;20028;-62
2023/01/16 05:57:05;;;;;;;4.93;1.55;;;1.00;99.90;;;;;;5071649;28;20397;-63
2023/01/16 05:59:31;;;;;;;5.13;1.20;;;1.00;99.90;;;;;;5088913;28;20051;-63
2023/01/16 06:01:56;;;;;;;3.08;1.17;;;0.90;99.90;;;;;;5088153;28;20020;-63
2023/01/16 06:04:23;;;;;;;6.18;1.50;;;0.90;99.90;;;;;;5093416;28;20052;-62
2023/01/16 06:06:48;;;;;;;3.90;1.20;;;0.90;99.90;;;;;;5095200;28;20019;-62
2023/01/16 06:09:14;;;;;;;4.60;1.33;;;0.90;99.90;;;;;;5085257;28;20395;-63
2023/01/16 06:11:40;;;;;;;3.40;1.35;;;0.90;99.90;;;;;;5088285;28;20031;-62
2023/01/16 06:14:05;;;;;;;6.80;1.25;;;0.90;99.90;;;;;;5088949;28;20043;-63
2023/01/16 06:16:32;;;;;;;6.18;1.20;;;0.90;99.90;;;;;;5088142;28;20112;-63
2023/01/16 06:18:58;;;;;;;3.22;1.30;;;0.80;99.90;;;;;;5084641;28;20161;-64
2023/01/16 06:21:24;;;;;;;5.85;1.60;;;0.80;99.90;;;;;;5070168;28;20107;-62
2023/01/16 06:23:49;;;;;;;2.65;1.27;;;0.80;99.90;;;;;;5088262;28;20098;-63
2023/01/16 06:26:15;;;;;;;6.63;1.50;;;0.80;99.90;;;;;;5089232;28;20024;-62
2023/01/16 06:28:41;;;;;;;4.97;1.20;;;0.80;99.90;;;;;;5088253;28;20138;-63
2023/01/16 06:31:07;;;;;;;5.25;1.50;;;0.80;99.90;;;;;;5087456;28;20081;-63
2023/01/16 06:33:33;;;;;;;3.17;1.42;;;0.80;99.90;;;;;;5101449;28;20028;-62
2023/01/16 06:35:59;;;;;;;4.43;1.75;;;0.80;99.90;;;;;;5088302;28;20039;-62
2023/01/16 06:38:25;;;;;;;2.92;1.42;;;0.80;99.90;;;;;;5070645;28;20032;-61
2023/01/16 06:40:55;;;;;;;7.75;1.77;;;0.80;99.90;;;;;;5088260;28;20032;-63
2023/01/16 06:43:22;;;;;;;8.95;2.15;;;0.70;99.90;;;;;;5089023;28;20111;-62
2023/01/16 06:45:48;;;;;;;5.30;1.88;;;0.70;99.90;;;;;;5087984;28;20036;-64
2023/01/16 06:48:13;;;;;;;5.20;1.92;;;0.70;99.90;;;;;;5090533;28;20035;-63
2023/01/16 06:50:39;;;;;;;7.93;2.47;;;0.70;99.90;;;;;;5082364;28;20056;-64
2023/01/16 06:53:05;;;;;;;5.50;2.40;;;0.60;99.90;;;;;;5088300;28;20036;-60
2023/01/16 06:55:30;;;;;;;6.53;2.38;;;0.60;99.90;;;;;;5087734;28;20503;-62
2023/01/16 06:57:56;;;;;;;9.55;4.03;;;0.60;99.90;;;;;;5082234;28;20036;-62
2023/01/16 07:00:22;;;;;;;5.63;2.50;;;0.60;99.90;;;;;;5069175;28;20044;-61
2023/01/16 07:02:56;;;;;;;11.20;4.03;;;0.60;99.90;;;;;;5082350;28;20040;-62
2023/01/16 07:05:23;;;;;;;6.18;2.50;;;0.60;99.90;;;;;;5086368;28;20556;-62
2023/01/16 07:07:48;;;;;;;10.43;4.68;;;0.60;99.90;;;;;;5088694;28;20031;-63
2023/01/16 07:10:14;;;;;;;6.40;2.95;;;0.60;99.90;;;;;;5087758;28;20463;-63
2023/01/16 07:12:40;;;;;;;6.18;2.80;;;0.70;99.90;;;;;;5086888;28;20024;-63
2023/01/16 07:23:31;;;;;;;16.98;7.90;;;0.70;99.90;;;;;;5088357;28;20027;-62
2023/01/16 07:26:00;;;;;;;16.27;8.85;;;0.70;99.90;;;;;;5086266;28;20040;-63
2023/01/16 07:28:27;;;;;;;14.98;6.18;;;0.70;99.90;;;;;;5088357;28;20139;-62
2023/01/16 07:30:54;;;;;;;7.70;1.98;;;0.80;99.90;;;;;;5069543;28;20040;-63
2023/01/16 07:33:19;;;;;;;10.73;5.40;;;0.90;99.90;;;;;;5089315;28;20024;-62
2023/01/16 07:35:45;;;;;;;8.50;2.80;;;1.00;99.90;;;;;;5088241;28;20032;-63
2023/01/16 07:38:11;;;;;;;7.00;2.63;;;1.00;99.90;;;;;;5087735;28;20039;-62
2023/01/16 07:40:36;;;;;;;3.17;1.70;;;1.10;99.90;;;;;;5089429;28;20031;-63
2023/01/16 07:43:02;;;;;;;6.93;4.30;;;1.20;99.90;;;;;;5087713;28;20072;-62
2023/01/16 07:45:28;;;;;;;4.60;2.70;;;1.30;99.90;;;;;;5091444;28;20701;-62
2023/01/16 07:47:54;;;;;;;12.65;8.25;;;1.30;99.90;;;;;;5084752;28;20098;-62
2023/01/16 07:50:20;;;;;;;3.83;1.65;;;1.40;99.90;;;;;;5088829;28;20089;-61
2023/01/16 07:52:46;;;;;;;4.35;1.90;;;1.40;99.90;;;;;;5085919;28;20028;-63
2023/01/16 07:55:12;;;;;;;3.20;1.40;;;1.50;99.90;;;;;;5088680;28;20048;-62
2023/01/16 07:57:39;;;;;;;10.23;3.40;;;1.50;99.90;;;;;;5088462;28;20102;-62
2023/01/16 08:00:08;;;;;;;6.32;2.97;;;1.60;99.90;;;;;;5087616;28;20028;-62
2023/01/16 08:02:33;;;;;;;6.30;2.60;;;1.60;99.90;;;;;;5088113;28;20097;-63
2023/01/16 08:04:59;;;;;;;3.63;0.90;;;1.70;99.90;;;;;;5079621;28;20071;-62
2023/01/16 08:07:25;;;;;;;3.47;1.35;;;1.70;99.90;;;;;;5082761;28;20064;-62
2023/01/16 08:09:50;;;;;;;8.48;2.28;;;1.80;99.90;;;;;;5086606;28;20101;-64
2023/01/16 08:12:16;;;;;;;3.83;1.25;;;1.80;99.90;;;;;;5088091;28;20036;-63
2023/01/16 08:14:42;;;;;;;2.95;1.05;;;1.90;99.90;;;;;;5089240;28;20059;-63
2023/01/16 08:17:07;;;;;;;3.10;1.30;;;2.00;99.90;;;;;;5069531;28;20101;-63
2023/01/16 08:19:33;;;;;;;5.22;1.50;;;2.10;99.90;;;;;;5087056;28;20109;-64
2023/01/16 08:21:59;;;;;;;5.50;1.45;;;2.10;99.90;;;;;;5075123;28;20028;-63
2023/01/16 08:24:25;;;;;;;2.97;1.27;;;2.20;99.90;;;;;;5090423;28;20118;-63
2023/01/16 08:26:52;;;;;;;5.60;2.15;;;2.30;99.90;;;;;;5086261;28;20031;-62
2023/01/16 08:29:17;;;;;;;3.47;1.50;;;2.30;99.90;;;;;;5088123;28;20053;-63
2023/01/16 08:31:43;;;;;;;3.72;1.60;;;2.50;99.90;;;;;;5089310;28;20025;-63
2023/01/16 08:34:09;;;;;;;2.25;1.13;;;2.50;99.90;;;;;;5083420;28;20032;-64
2023/01/16 08:36:35;;;;;;;3.10;1.23;;;2.70;99.90;;;;;;5088034;28;20031;-63
2023/01/16 08:39:01;;;;;;;3.58;1.33;;;2.80;99.90;;;;;;5081424;28;20040;-63
2023/01/16 08:52:44;;;;;;;15.82;8.88;;;3.10;99.90;;;;;;5088948;28;20153;-63
2023/01/16 08:55:09;;;;;;;4.15;2.00;;;3.20;99.90;;;;;;5087500;28;20115;-64
2023/01/16 08:57:35;;;;;;;21.95;12.00;;;3.20;99.90;;;;;;5069414;28;20111;-63
2023/01/16 09:00:02;;;;;;;4.03;1.85;;;3.20;99.90;;;;;;5087216;28;20036;-63
2023/01/16 09:02:28;;;;;;;14.60;6.68;;;3.30;99.90;;;;;;5087996;28;20032;-63
2023/01/16 09:04:54;;;;;;;9.95;4.20;;;3.40;99.90;;;;;;5088205;28;20106;-63
2023/01/16 09:07:21;;;;;;;9.32;4.45;;;3.40;99.90;;;;;;5086924;28;20031;-64
2023/01/16 09:09:47;;;;;;;13.63;5.93;;;3.50;99.90;;;;;;5087520;28;20036;-62
2023/01/16 09:14:58;;;;;;;9.20;3.95;;;3.50;99.90;;;;;;5093267;28;20074;-63
2023/01/16 09:17:25;;;;;;;10.40;5.22;;;3.40;99.90;;;;;;5087932;28;20051;-64
2023/01/16 09:19:52;;;;;;;3.80;1.02;;;3.40;99.90;;;;;;5089050;28;20418;-64
2023/01/16 09:22:18;;;;;;;56.53;23.10;;;3.30;99.90;;;;;;5090322;28;20051;-63
2023/01/16 09:24:44;;;;;;;4.28;2.08;;;3.30;99.90;;;;;;5091146;28;20020;-63
2023/01/16 09:27:09;;;;;;;15.77;7.93;;;3.30;99.90;;;;;;5071773;28;20044;-63
2023/01/16 09:29:35;;;;;;;5.35;1.90;;;3.40;99.90;;;;;;5091626;28;20032;-63
2023/01/16 09:32:07;;;;;;;126.03;60.28;;;3.40;99.90;;;;;;5090276;28;20032;-63
2023/01/16 09:34:33;;;;;;;5.28;2.55;;;3.50;99.90;;;;;;5091502;28;20036;-64
2023/01/16 09:36:58;;;;;;;5.65;1.00;;;3.60;99.90;;;;;;5070988;28;20035;-63
2023/01/16 09:39:24;;;;;;;5.43;2.45;;;3.70;99.90;;;;;;5091061;28;20028;-64
2023/01/16 09:44:56;;;;;;;2.05;0.80;;;3.60;99.90;;;;;;5090239;28;20109;-63
2023/01/16 09:47:24;;;;;;;1.73;0.82;;;3.60;99.90;;;;;;5090989;28;20032;-62
2023/01/16 09:49:55;;;;;;;12.65;5.90;;;3.60;99.90;;;;;;5090679;28;20024;-64
2023/01/16 09:58:36;;;;;;;1.90;0.63;;;3.60;99.90;;;;;;5090911;28;20085;-63
2023/01/16 10:01:38;;;;;;;2.40;0.50;;;3.50;99.90;;;;;;5090209;28;20058;-63
2023/01/16 10:04:19;;;;;;;0.90;0.47;;;3.70;99.90;;;;;;5090045;28;20040;-62
2023/01/16 10:07:06;;;;;;;1.50;0.40;;;3.60;99.90;;;;;;5093899;28;20035;-63
2023/01/16 10:09:50;;;;;;;11.90;5.43;;;3.60;99.90;;;;;;5083483;28;20043;-63
2023/01/16 10:12:16;;;;;;;5.40;0.75;;;3.60;99.90;;;;;;5090428;28;20086;-64
2023/01/16 10:14:54;;;;;;;0.95;0.40;;;3.80;99.90;;;;;;5091037;28;20064;-63
2023/01/16 10:17:47;;;;;;;2.28;0.93;;;3.90;99.90;;;;;;5089838;28;20024;-63
2023/01/16 10:20:30;;;;;;;0.73;0.40;;;3.80;99.90;;;;;;5089748;28;20036;-63
2023/01/16 10:23:14;;;;;;;2.13;0.63;;;3.80;99.90;;;;;;5089765;28;20039;-64
2023/01/16 10:26:10;;;;;;;1.27;0.40;;;3.90;99.90;;;;;;5083276;28;20116;-62
2023/01/16 10:29:01;;;;;;;2.00;0.88;;;4.00;99.90;;;;;;5085888;28;20048;-63
2023/01/16 10:31:33;;;;;;;1.85;0.75;;;4.00;99.90;;;;;;5089835;28;20035;-62
2023/01/16 10:34:08;;;;;;;2.50;0.70;;;4.10;99.90;;;;;;5089691;28;20043;-63
2023/01/16 10:36:43;;;;;;;1.83;0.70;;;4.20;99.90;;;;;;5089172;28;20039;-63
2023/01/16 10:39:12;;;;;;;1.95;0.88;;;4.20;99.90;;;;;;5089651;28;20034;-64
2023/01/16 10:50:42;;;;;;;3.17;0.80;;;3.90;99.90;;;;;;5089910;28;20039;-63
2023/01/16 10:53:10;;;;;;;2.08;0.82;;;3.90;99.90;;;;;;5089186;28;20615;-63
2023/01/16 10:55:39;;;;;;;5.47;0.80;;;3.90;99.90;;;;;;5089723;28;20089;-63
2023/01/16 10:58:15;;;;;;;2.58;0.80;;;3.90;99.90;;;;;;5087553;28;20128;-63
2023/01/16 11:00:42;;;;;;;2.20;0.70;;;3.90;99.90;;;;;;5089678;28;20027;-63
2023/01/16 11:03:14;;;;;;;1.83;0.38;;;3.80;99.90;;;;;;5087975;28;20504;-63
2023/01/16 11:05:40;;;;;;;1.75;0.60;;;3.90;99.90;;;;;;5089596;28;20135;-62
2023/01/16 11:08:12;;;;;;;1.63;0.50;;;4.00;99.90;;;;;;5088943;28;20471;-62
2023/01/16 11:10:43;;;;;;;1.25;0.57;;;4.00;99.90;;;;;;5089536;28;20122;-63
2023/01/16 11:19:18;;;;;;;2.08;0.80;;;3.90;99.90;;;;;;5090391;28;20475;-63
2023/01/16 11:21:48;;;;;;;1.70;0.35;;;4.00;99.90;;;;;;5089437;28;20329;-63
2023/01/16 11:24:24;;;;;;;4.60;2.00;;;4.00;99.90;;;;;;5088510;28;20119;-63
2023/01/16 11:26:54;;;;;;;5.18;2.28;;;3.90;99.90;;;;;;5088905;28;20089;-62
2023/01/16 11:29:23;;;;;;;;;;;4.00;99.90;;;;;;5071329;28;20537;-63
2023/01/16 11:31:56;;;;;;;3.72;1.48;;;4.00;99.90;;;;;;5088062;28;19953;-63
2023/01/16 11:34:27;;;;;;;19.48;10.00;;;4.00;99.90;;;;;;5088954;28;20449;-62
2023/01/16 11:37:02;;;;;;;1.75;1.10;;;4.00;99.90;;;;;;5089175;28;20384;-63
2023/01/16 11:39:30;;;;;;;2.58;0.70;;;4.00;99.90;;;;;;5088869;28;20024;-63
2023/01/16 11:41:58;;;;;;;3.05;1.38;;;3.90;99.90;;;;;;5088352;28;20036;-64
2023/01/16 11:47:21;;;;;;;3.70;0.80;;;3.80;99.90;;;;;;5092012;28;20088;-62
2023/01/16 11:49:51;;;;;;;10.73;4.57;;;3.90;99.90;;;;;;5088654;28;20856;-63
2023/01/16 11:52:29;;;;;;;20.10;9.23;;;3.90;99.90;;;;;;5087987;28;20105;-62
2023/01/16 11:54:56;;;;;;;9.82;4.57;;;3.90;99.90;;;;;;5088508;28;20097;-63
2023/01/16 11:57:31;;;;;;;9.27;4.13;;;3.80;99.90;;;;;;5088507;28;20419;-63
2023/01/16 12:00:21;;;;;;;5.95;2.53;;;3.90;99.90;;;;;;5088366;28;20046;-64
2023/01/16 12:03:08;;;;;;;10.57;5.97;;;3.90;99.90;;;;;;5086422;28;20046;-63
2023/01/16 12:05:54;;;;;;;14.88;7.03;;;3.90;99.90;;;;;;5088753;28;20039;-63
2023/01/16 12:08:36;;;;;;;2.47;0.73;;;3.90;99.90;;;;;;5088063;28;20070;-63
2023/01/16 12:11:08;;;;;;;1.25;0.63;;;4.20;99.90;;;;;;5087725;28;20084;-63
2023/01/16 12:16:51;;;;;;;0.57;0.30;;;4.30;99.90;;;;;;5086964;28;20545;-63
2023/01/16 12:19:50;;;;;;;1.13;0.22;;;4.80;99.90;;;;;;5082612;28;20686;-62
2023/01/16 12:22:21;;;;;;;0.85;0.40;;;4.90;99.90;;;;;;5087789;28;20020;-63
2023/01/16 12:24:54;;;;;;;1.75;0.20;;;4.90;99.90;;;;;;5088572;28;20062;-63
2023/01/16 12:27:56;;;;;;;0.82;0.20;;;5.00;99.90;;;;;;5079548;28;20028;-63
2023/01/16 12:30:47;;;;;;;2.05;0.38;;;5.00;99.90;;;;;;5079772;28;20032;-63
2023/01/16 12:33:22;;;;;;;0.98;0.38;;;4.90;99.90;;;;;;5082220;28;20115;-63
2023/01/16 12:36:06;;;;;;;0.50;0.20;;;4.90;99.90;;;;;;5093818;28;20031;-63
2023/01/16 12:38:50;;;;;;;1.10;0.22;;;4.90;99.90;;;;;;5081791;28;20028;-63
2023/01/16 12:44:59;;;;;;;1.55;0.30;;;5.00;99.90;;;;;;5082038;28;20044;-63
2023/01/16 12:47:50;;;;;;;1.95;0.30;;;5.00;99.90;;;;;;5087193;28;20028;-63
2023/01/16 12:50:45;;;;;;;1.08;0.30;;;5.20;99.90;;;;;;5072568;28;20551;-63
2023/01/16 12:53:40;;;;;;;0.40;0.20;;;5.30;99.90;;;;;;5087229;28;20047;-63
2023/01/16 12:56:23;;;;;;;0.57;0.15;;;5.40;99.90;;;;;;5065719;28;20050;-63
2023/01/16 12:58:54;;;;;;;0.77;0.25;;;5.50;99.90;;;;;;5092376;28;20035;-63
2023/01/16 13:01:30;;;;;;;0.85;0.20;;;5.50;99.90;;;;;;5073604;28;20190;-63
2023/01/16 13:04:00;;;;;;;2.70;0.50;;;5.50;99.90;;;;;;5093767;28;20496;-63
2023/01/16 13:06:42;;;;;;;2.65;0.40;;;5.50;99.90;;;;;;5091792;28;20077;-62
2023/01/16 13:09:26;;;;;;;0.30;0.10;;;5.60;99.90;;;;;;5091133;28;20057;-63
2023/01/16 13:15:09;;;;;;;0.28;0.10;;;5.70;99.90;;;;;;5091737;28;20043;-63
2023/01/16 13:18:03;;;;;;;0.40;0.10;;;5.70;99.90;;;;;;5092143;28;20051;-61
2023/01/16 13:20:31;;;;;;;2.08;0.17;;;5.70;99.90;;;;;;5092706;28;20502;-63
2023/01/16 13:23:14;;;;;;;0.52;0.10;;;5.70;99.90;;;;;;5090611;28;20485;-62
2023/01/16 13:25:46;;;;;;;0.45;0.10;;;5.70;99.90;;;;;;5084055;28;20032;-62
2023/01/16 13:28:23;;;;;;;0.70;0.10;;;5.60;99.90;;;;;;5090309;28;20428;-63
2023/01/16 13:30:55;;;;;;;0.50;0.00;;;5.60;99.90;;;;;;5091776;28;20488;-62
2023/01/16 13:33:25;;;;;;;0.17;0.00;;;5.60;99.90;;;;;;5090173;28;20024;-62
2023/01/16 13:36:25;;;;;;;0.22;0.00;;;5.60;99.90;;;;;;5097270;28;20089;-62
2023/01/16 13:38:56;;;;;;;0.45;0.10;;;5.60;99.90;;;;;;5084863;28;20448;-63
2023/01/16 13:41:39;;;;;;;0.28;0.10;;;5.60;99.90;;;;;;5090461;28;20109;-64
2023/01/16 13:47:17;;;;;;;0.75;0.00;;;5.70;99.90;;;;;;5090390;28;20047;-62
2023/01/16 13:49:52;;;;;;;1.83;0.10;;;5.70;99.90;;;;;;5083414;28;20036;-63
2023/01/16 13:52:25;;;;;;;1.33;0.17;;;5.60;99.90;;;;;;5090220;28;20070;-63
2023/01/16 13:54:55;;;;;;;0.63;0.00;;;5.60;99.90;;;;;;5091298;28;20036;-63
2023/01/16 13:57:23;;;;;;;0.30;0.10;;;5.60;99.90;;;;;;5090192;28;20112;-63
2023/01/16 13:59:57;;;;;;;0.10;0.05;;;5.60;99.90;;;;;;5094436;28;20032;-63
2023/01/16 14:02:43;;;;;;;1.55;0.10;;;5.60;99.90;;;;;;5090192;28;20051;-63
2023/01/16 14:05:40;;;;;;;0.50;0.10;;;5.70;99.90;;;;;;5089508;28;20044;-62
2023/01/16 14:11:41;;;;;;;4.95;0.40;;;5.70;99.90;;;;;;5043598;28;20595;-62
2023/01/16 14:16:30;;;;;;;0.82;0.30;;;5.70;99.90;;;;;;5084858;28;20042;-63
2023/01/16 14:17:10;;;;;;;0.45;0.20;;;5.60;99.90;;;;;;5084073;28;20042;-63
2023/01/16 14:19:51;;;;;;;0.50;0.10;;;5.60;99.90;;;;;;5090780;28;20035;-63
2023/01/16 14:25:28;;;;;;;0.40;0.13;;;5.70;99.90;;;;;;5089514;28;20039;-62
2023/01/16 14:27:56;;;;;;;0.52;0.10;;;5.70;99.90;;;;;;5090094;28;20488;-63
2023/01/16 14:30:31;;;;;;;0.30;0.10;;;5.70;99.90;;;;;;5089599;28;20044;-63
2023/01/16 14:32:59;;;;;;;0.40;0.20;;;5.70;99.90;;;;;;5082962;28;20047;-62